Monday, October 23, 2017, 1:21 PM EDT
Back to Local

KHFD, Hartford-brainard Airport

Location: Hartford, CT, United States Lat: 41.733
Local Time: 1:21 PM EDT (17:21 GMT) Lon: -72.65
Time Zone: US/Eastern Elev: 19 ft

Show me the last for .
Show Decoded

2017-10-23 12:53 METAR KHFD 231653Z 17010KT 10SM SCT016 BKN028 22/15 A3025 RMK AO2 SLP243
                 T02220150 PNO $ =
2017-10-23 11:53 METAR KHFD 231553Z 16005KT 10SM FEW022 BKN028 21/16 A3028 RMK AO2 SLP254
                 T02060156 PNO $ =
2017-10-23 10:53 METAR KHFD 231453Z VRB03KT 10SM BKN016 BKN028 18/14 A3031 RMK AO2 SLP264 6////
                 T01780144 58014 PNO $ =
2017-10-23 10:13 METAR KHFD 231413Z 00000KT 10SM SCT016 BKN028 16/13 A3033 RMK AO2 T01560133 PNO
                 $ =
2017-10-23 09:53 METAR KHFD 231353Z 00000KT 9SM FEW031 14/13 A3033 RMK AO2 SLP270 T01440128 PNO $
                 =
2017-10-23 09:38 METAR KHFD 231338Z 00000KT 9SM SCT016 BKN031 14/12 A3034 RMK AO2 T01390122 PNO $
                 =
2017-10-23 08:53 METAR KHFD 231253Z 00000KT 5SM BR OVC016 13/12 A3035 RMK AO2 SLP276 T01280122
                 PNO $ =
2017-10-23 08:37 METAR KHFD 231237Z 00000KT 7SM BKN018 12/12 A3035 RMK AO2 T01220117 PNO $ =
2017-10-23 08:27 METAR KHFD 231227Z 00000KT 7SM SCT017 12/11 A3035 RMK AO2 T01170111 PNO $ =
2017-10-23 07:53 METAR KHFD 231153Z 00000KT 6SM BR FEW006 OVC017 12/12 A3035 RMK AO2 SLP277 6////
                 7//// T01170117 10117 20078 56002 PNO $ =
2017-10-23 07:39 METAR KHFD 231139Z 00000KT 5SM BR BKN005 OVC018 11/11 A3035 RMK AO2 CIG 003V007
                 T01110111 PNO $ =
2017-10-23 07:27 METAR KHFD 231127Z 00000KT 4SM BR OVC004 11/11 A3035 RMK AO2 CIG 003V007
                 T01110111 PNO $ =
2017-10-23 06:53 METAR KHFD 231053Z 04003KT 4SM BR OVC002 11/11 A3035 RMK AO2 SLP278 T01110111
                 PNO $ =
2017-10-23 06:46 METAR KHFD 231046Z 04004KT 4SM BR OVC002 11/11 A3035 RMK AO2 T01110111 PNO $ =
2017-10-23 06:39 METAR KHFD 231039Z 04003KT 2 1/2SM BR OVC003 11/11 A3035 RMK AO2 T01110111 PNO $
                 =
2017-10-23 06:32 METAR KHFD 231032Z 02003KT 1 3/4SM BR OVC003 12/11 A3036 RMK AO2 T01170111 PNO $
                 =
2017-10-23 05:53 METAR KHFD 230953Z 33003KT 1/4SM FG VV002 12/12 A3036 RMK AO2 SLP279 T01170117
                 PNO $ =
2017-10-23 04:53 METAR KHFD 230853Z AUTO 00000KT 1/4SM FG VV002 11/11 A3035 RMK AO2 SLP276 6////
                 T01110111 56009 PWINO PNO $ =
2017-10-23 03:53 METAR KHFD 230753Z AUTO 00000KT 1/4SM FG VV002 11/11 A3035 RMK AO2 SLP277
                 T01060106 PWINO PNO $ =
2017-10-23 02:53 METAR KHFD 230653Z AUTO 00000KT 3/4SM BR BKN002 09/08 A3036 RMK AO2 SLP281
                 T00890083 PWINO $ =
2017-10-23 02:35 METAR KHFD 230635Z AUTO 00000KT 3/4SM BR VV003 08/08 A3037 RMK AO2 T00830083
                 PWINO PNO $ =
2017-10-23 02:33 METAR KHFD 230633Z AUTO 00000KT 1 1/2SM BR FEW003 08/08 A3037 RMK AO2 T00830078
                 PWINO PNO $ =
2017-10-23 02:29 METAR KHFD 230629Z AUTO 00000KT 2 1/2SM BR CLR 08/08 A3037 RMK AO2 T00830083
                 PWINO PNO $ =
2017-10-23 02:09 METAR KHFD 230609Z AUTO 00000KT 1/2SM FG CLR 09/09 A3037 RMK AO2 T00940094 PWINO
                 PNO $ =
2017-10-23 01:53 METAR KHFD 230553Z AUTO 00000KT 1 1/4SM BR CLR 09/08 A3038 RMK AO2 SLP286 6////
                 T00890083 10161 20083 58004 PWINO PNO $ =
2017-10-23 01:47 METAR KHFD 230547Z AUTO 00000KT 1 3/4SM BR FEW002 09/09 A3037 RMK AO2 PWINO PNO
                 $ =
2017-10-23 01:43 METAR KHFD 230543Z AUTO 00000KT 3SM BR FEW002 09/09 A3037 RMK AO2 T00940089
                 PWINO PNO $ =
2017-10-23 01:37 METAR KHFD 230537Z AUTO 00000KT 1 1/4SM BR FEW002 09/09 A3037 RMK AO2 VIS 1/4V4
                 T00940089 PWINO PNO $ =
2017-10-23 01:32 METAR KHFD 230532Z AUTO 00000KT 3/4SM BR VV002 09/09 A3037 RMK AO2 T00940089
                 PWINO PNO $ =
2017-10-23 01:24 METAR KHFD 230524Z AUTO 00000KT 3/4SM BR CLR 09/09 A3037 RMK AO2 T00940089 PWINO
                 PNO $ =
2017-10-23 01:13 METAR KHFD 230513Z AUTO 00000KT 1 1/2SM BR CLR 09/09 A3037 RMK AO2 T00940094
                 PWINO PNO $ =
2017-10-23 00:53 METAR KHFD 230453Z AUTO 00000KT 8SM CLR 11/10 A3037 RMK AO2 SLP285 T01060100
                 402610078 PWINO PNO $ =
2017-10-23 00:34 METAR KHFD 230434Z AUTO 00000KT 3SM BR CLR 10/09 A3038 RMK AO2 T01000094 PWINO
                 PNO $ =
2017-10-23 00:28 METAR KHFD 230428Z AUTO 00000KT 1 3/4SM BR CLR 10/10 A3038 RMK AO2 VIS 3/4V5
                 T01000100 PWINO PNO $ =
2017-10-23 00:17 METAR KHFD 230417Z AUTO 00000KT 10SM CLR 11/11 A3039 RMK AO2 T01110106 PWINO PNO
                 $ =
2017-10-23 00:07 METAR KHFD 230407Z AUTO 00000KT 2SM BR CLR 11/10 A3039 RMK AO2 T01060100 PWINO
                 PNO $ =
2017-10-22 23:53 METAR KHFD 230353Z 00000KT 10SM CLR 11/10 A3039 RMK AO2 SLP291 T01110100 PNO $ =
2017-10-22 22:53 METAR KHFD 230253Z 17003KT 10SM CLR 12/10 A3039 RMK AO2 SLP289 6//// T01170100
                 50007 PNO $ =
2017-10-22 21:53 METAR KHFD 230153Z 19003KT 10SM CLR 14/11 A3039 RMK AO2 SLP290 T01390111 PNO $ =
2017-10-22 20:53 METAR KHFD 230053Z 18003KT 10SM CLR 14/11 A3038 RMK AO2 SLP286 T01440106 PNO $ =
2017-10-22 19:53 METAR KHFD 222353Z 17003KT 10SM CLR 17/11 A3037 RMK AO2 SLP282 6//// T01670106
                 10261 20161 51007 PNO $ =
2017-10-22 18:53 METAR KHFD 222253Z 17004KT 10SM CLR 19/09 A3035 RMK AO2 SLP278 T01890094 PNO $ =
2017-10-22 17:53 METAR KHFD 222153Z 00000KT 10SM CLR 21/08 A3036 RMK AO2 SLP280 T02060078 PNO $ =
2017-10-22 16:53 METAR KHFD 222053Z 17006KT 10SM CLR 24/07 A3035 RMK AO2 SLP275 6//// T02390072
                 55005 PNO $ =
2017-10-22 15:53 METAR KHFD 221953Z 19006KT 10SM CLR 25/07 A3034 RMK AO2 SLP275 T02500067 PNO $ =
2017-10-22 14:53 METAR KHFD 221853Z 16005KT 10SM CLR 26/09 A3035 RMK AO2 SLP277 T02560094 PNO $ =
2017-10-22 13:53 METAR KHFD 221753Z VRB03KT 10SM CLR 23/11 A3036 RMK AO2 SLP280 6//// T02330106
                 10233 20078 58020 PNO $ =

Support USWX by starting your Amazon purchase here.